createdAt,value
2018-12-12T00:01:56.990Z,3.40
2018-12-12T00:04:24.454Z,3.40
2018-12-12T00:06:52.368Z,3.40
2018-12-12T00:09:19.841Z,3.40
2018-12-12T00:11:47.309Z,3.40
2018-12-12T00:14:14.757Z,3.40
2018-12-12T00:16:42.229Z,3.40
2018-12-12T00:19:09.673Z,3.40
2018-12-12T00:21:37.147Z,3.40
2018-12-12T00:24:04.669Z,3.40
2018-12-12T00:26:32.169Z,3.40
2018-12-12T00:28:59.620Z,3.30
2018-12-12T00:31:27.080Z,3.40
2018-12-12T00:33:54.779Z,3.30
2018-12-12T00:36:22.241Z,3.40
2018-12-12T00:38:49.691Z,3.40
2018-12-12T00:41:17.168Z,3.40
2018-12-12T00:43:44.933Z,3.40
2018-12-12T00:46:12.396Z,3.50
2018-12-12T00:48:40.585Z,3.40
2018-12-12T00:51:08.049Z,3.50
2018-12-12T00:53:35.525Z,3.50
2018-12-12T00:56:02.979Z,3.30
2018-12-12T00:58:30.441Z,3.40
2018-12-12T01:00:57.892Z,3.40
2018-12-12T01:03:25.365Z,3.30
2018-12-12T01:05:52.816Z,3.40
2018-12-12T01:08:20.281Z,3.40
2018-12-12T01:10:49.706Z,3.40
2018-12-12T01:13:17.169Z,3.40
2018-12-12T01:15:44.618Z,3.40
2018-12-12T01:18:12.080Z,3.40
2018-12-12T01:20:39.525Z,3.30
2018-12-12T01:23:07.017Z,3.40
2018-12-12T01:25:34.485Z,3.40
2018-12-12T01:28:01.940Z,3.30
2018-12-12T01:30:29.429Z,3.40
2018-12-12T01:32:56.882Z,3.40
2018-12-12T01:35:24.336Z,3.30
2018-12-12T01:37:51.861Z,3.30
2018-12-12T01:40:19.335Z,3.40
2018-12-12T01:42:46.789Z,4.80
2018-12-12T01:45:14.245Z,3.30
2018-12-12T01:47:41.928Z,3.30
2018-12-12T01:50:09.388Z,3.30
2018-12-12T01:52:36.853Z,3.20
2018-12-12T01:55:04.375Z,3.30
2018-12-12T01:57:31.852Z,3.30
2018-12-12T01:59:59.300Z,3.40
2018-12-12T02:02:26.773Z,3.30
2018-12-12T02:04:54.229Z,3.30
2018-12-12T02:07:21.692Z,3.30
2018-12-12T02:09:49.145Z,3.30
2018-12-12T02:12:16.613Z,3.30
2018-12-12T02:14:44.064Z,3.40
2018-12-12T02:17:11.617Z,3.40
2018-12-12T02:19:39.081Z,3.40
2018-12-12T02:22:06.537Z,3.40
2018-12-12T02:24:34.055Z,3.30
2018-12-12T02:27:01.591Z,3.40
2018-12-12T02:29:29.032Z,3.40
2018-12-12T02:31:56.490Z,3.40
2018-12-12T02:34:24.021Z,3.30
2018-12-12T02:36:51.529Z,3.30
2018-12-12T02:39:19.001Z,3.40
2018-12-12T02:41:46.548Z,3.40
2018-12-12T02:44:14.017Z,3.40
2018-12-12T02:46:41.478Z,3.30
2018-12-12T02:49:08.940Z,3.20
2018-12-12T02:51:36.384Z,3.20
2018-12-12T02:54:03.924Z,3.30
2018-12-12T02:56:31.369Z,3.40
2018-12-12T02:58:58.848Z,3.40
2018-12-12T03:01:26.293Z,3.40
2018-12-12T03:03:53.759Z,3.40
2018-12-12T03:06:21.201Z,3.40
2018-12-12T03:08:48.668Z,3.30
2018-12-12T03:11:18.085Z,3.30
2018-12-12T03:13:45.550Z,3.40
2018-12-12T03:16:13.017Z,3.30
2018-12-12T03:18:40.464Z,3.40
2018-12-12T03:21:07.924Z,3.40
2018-12-12T03:23:35.381Z,3.40
2018-12-12T03:26:02.845Z,3.40
2018-12-12T03:28:30.294Z,3.40
2018-12-12T03:30:57.754Z,3.40
2018-12-12T03:33:25.212Z,3.40
2018-12-12T03:35:52.662Z,3.40
2018-12-12T03:38:20.124Z,3.40
2018-12-12T03:40:47.844Z,3.40
2018-12-12T03:43:15.303Z,3.40
2018-12-12T03:45:42.755Z,3.40
2018-12-12T03:48:10.324Z,3.30
2018-12-12T03:50:37.768Z,3.30
2018-12-12T03:53:05.233Z,3.30
2018-12-12T03:55:32.694Z,3.20
2018-12-12T03:58:00.141Z,3.20
2018-12-12T04:00:27.605Z,3.30
2018-12-12T04:02:55.058Z,3.20
2018-12-12T04:05:22.512Z,3.20
2018-12-12T04:07:49.962Z,3.20
2018-12-12T04:10:17.425Z,3.30
2018-12-12T04:12:44.876Z,3.30
2018-12-12T04:15:12.346Z,3.30
2018-12-12T04:17:39.798Z,3.20
2018-12-12T04:20:07.412Z,3.20
2018-12-12T04:22:34.930Z,3.30
2018-12-12T04:25:02.464Z,3.40
2018-12-12T04:27:30.029Z,3.30
2018-12-12T04:29:58.399Z,3.30
2018-12-12T04:32:26.273Z,3.30
2018-12-12T04:34:53.732Z,3.30
2018-12-12T04:37:21.198Z,3.30
2018-12-12T04:39:48.646Z,3.30
2018-12-12T04:42:16.102Z,3.40
2018-12-12T04:44:43.565Z,3.40
2018-12-12T04:47:11.015Z,3.40
2018-12-12T04:49:38.472Z,3.40
2018-12-12T04:52:05.934Z,3.40
2018-12-12T04:54:33.376Z,3.40
2018-12-12T04:57:00.838Z,3.40
2018-12-12T04:59:28.348Z,3.30
2018-12-12T05:01:55.813Z,3.30
2018-12-12T05:04:23.275Z,3.30
2018-12-12T05:06:50.737Z,3.30
2018-12-12T05:09:18.185Z,3.30
2018-12-12T05:11:45.653Z,3.30
2018-12-12T05:14:13.197Z,3.20
2018-12-12T05:16:40.675Z,3.20
2018-12-12T05:19:08.111Z,3.30
2018-12-12T05:21:35.582Z,3.20
2018-12-12T05:24:03.023Z,3.20
2018-12-12T05:26:30.488Z,3.30
2018-12-12T05:28:57.940Z,3.30
2018-12-12T05:31:25.518Z,3.30
2018-12-12T05:33:52.968Z,3.20
2018-12-12T05:36:20.446Z,3.20
2018-12-12T05:38:47.893Z,3.20
2018-12-12T05:41:15.350Z,3.30
2018-12-12T05:43:42.805Z,3.30
2018-12-12T05:46:10.269Z,3.20
2018-12-12T05:48:37.732Z,3.20
2018-12-12T05:51:05.192Z,3.10
2018-12-12T05:53:32.652Z,3.20
2018-12-12T05:56:02.561Z,3.10
2018-12-12T05:58:29.576Z,3.10
2018-12-12T06:00:57.444Z,3.10
2018-12-12T06:03:24.960Z,3.10
2018-12-12T06:05:52.402Z,3.10
2018-12-12T06:08:19.865Z,3.10
2018-12-12T06:10:47.312Z,3.10
2018-12-12T06:13:14.781Z,3.10
2018-12-12T06:15:42.223Z,3.10
2018-12-12T06:18:09.760Z,3.20
2018-12-12T06:20:37.211Z,3.20
2018-12-12T06:23:04.749Z,3.20
2018-12-12T06:25:32.213Z,3.20
2018-12-12T06:27:59.777Z,3.20
2018-12-12T06:30:27.228Z,3.20
2018-12-12T06:32:54.688Z,3.30
2018-12-12T06:35:22.148Z,3.20
2018-12-12T06:37:49.613Z,3.20
2018-12-12T06:40:17.087Z,3.20
2018-12-12T06:42:44.516Z,3.20
2018-12-12T06:45:12.054Z,3.20
2018-12-12T06:47:39.501Z,3.20
2018-12-12T06:50:07.313Z,3.10
2018-12-12T06:52:34.768Z,3.10
2018-12-12T06:55:02.228Z,3.10
2018-12-12T06:57:29.672Z,3.20
2018-12-12T06:59:57.132Z,3.20
2018-12-12T07:02:24.621Z,3.30
2018-12-12T07:04:52.169Z,3.20
2018-12-12T07:07:19.898Z,3.20
2018-12-12T07:09:47.363Z,3.20
2018-12-12T07:12:14.976Z,3.20
2018-12-12T07:14:42.440Z,3.30
2018-12-12T07:17:09.893Z,3.30
2018-12-12T07:19:37.343Z,3.20
2018-12-12T07:22:04.796Z,3.20
2018-12-12T07:24:32.309Z,3.10
2018-12-12T07:26:59.829Z,3.20
2018-12-12T07:29:27.273Z,3.10
2018-12-12T07:31:54.745Z,3.00
2018-12-12T07:34:22.198Z,3.00
2018-12-12T07:36:49.773Z,3.00
2018-12-12T07:39:18.107Z,2.90
2018-12-12T07:41:45.744Z,3.00
2018-12-12T07:44:13.201Z,3.00
2018-12-12T07:46:42.377Z,3.00
2018-12-12T07:49:10.220Z,3.00
2018-12-12T07:51:40.951Z,2.90
2018-12-12T07:54:08.399Z,2.90
2018-12-12T07:56:35.874Z,2.90
2018-12-12T07:59:03.320Z,2.90
2018-12-12T08:01:30.781Z,2.80
2018-12-12T08:03:58.246Z,2.90
2018-12-12T08:06:25.765Z,2.80
2018-12-12T08:08:53.235Z,2.80
2018-12-12T08:11:20.688Z,2.80
2018-12-12T08:13:48.149Z,2.80
2018-12-12T08:16:15.677Z,2.80
2018-12-12T08:18:43.318Z,2.80
2018-12-12T08:21:10.873Z,2.80
2018-12-12T08:23:38.344Z,2.90
2018-12-12T08:26:09.921Z,2.80
2018-12-12T08:28:37.519Z,2.80
2018-12-12T08:31:04.969Z,3.60
2018-12-12T08:33:32.862Z,4.60
2018-12-12T08:36:00.316Z,5.10
2018-12-12T08:38:27.772Z,5.30
2018-12-12T08:40:55.235Z,5.20
2018-12-12T08:43:22.691Z,4.90
2018-12-12T08:45:51.171Z,4.40
2018-12-12T08:48:18.616Z,3.80
2018-12-12T08:50:46.061Z,3.50
2018-12-12T08:53:13.509Z,3.20
2018-12-12T08:55:40.974Z,3.30
2018-12-12T08:58:08.412Z,3.20
2018-12-12T09:00:35.948Z,3.20
2018-12-12T09:03:03.402Z,3.30
2018-12-12T09:05:30.932Z,3.40
2018-12-12T09:07:58.440Z,3.40
2018-12-12T09:10:25.918Z,3.30
2018-12-12T09:12:53.376Z,3.30
2018-12-12T09:15:20.863Z,3.30
2018-12-12T09:17:48.387Z,3.30
2018-12-12T09:20:15.838Z,3.30
2018-12-12T09:22:43.288Z,3.30
2018-12-12T09:25:10.737Z,3.10
2018-12-12T09:27:38.205Z,3.10
2018-12-12T09:30:05.779Z,3.20
2018-12-12T09:32:33.247Z,3.20
2018-12-12T09:35:00.691Z,3.20
2018-12-12T09:37:28.161Z,3.30
2018-12-12T09:39:55.609Z,3.30
2018-12-12T09:42:23.064Z,3.30
2018-12-12T09:44:50.513Z,3.50
2018-12-12T09:47:17.968Z,3.50
2018-12-12T09:49:45.433Z,3.50
2018-12-12T09:52:12.881Z,3.50
2018-12-12T09:54:40.352Z,3.60
2018-12-12T09:57:07.799Z,3.60
2018-12-12T09:59:35.261Z,3.60
2018-12-12T10:02:02.882Z,3.50
2018-12-12T10:04:30.337Z,3.50
2018-12-12T10:06:58.023Z,3.40
2018-12-12T10:09:25.484Z,3.40
2018-12-12T10:11:52.924Z,3.40
2018-12-12T10:14:20.395Z,3.50
2018-12-12T10:16:47.856Z,3.60
2018-12-12T10:19:15.341Z,3.60
2018-12-12T10:21:43.165Z,3.60
2018-12-12T10:24:10.623Z,3.70
2018-12-12T10:26:38.162Z,3.80
2018-12-12T10:29:05.675Z,3.90
2018-12-12T10:31:33.194Z,4.00
2018-12-12T10:34:00.645Z,3.90
2018-12-12T10:36:28.113Z,4.00
2018-12-12T10:38:55.572Z,4.00
2018-12-12T10:41:23.024Z,4.10
2018-12-12T10:43:50.483Z,4.10
2018-12-12T10:46:17.937Z,4.20
2018-12-12T10:48:45.428Z,4.20
2018-12-12T10:51:12.948Z,4.00
2018-12-12T10:53:40.417Z,3.90
2018-12-12T10:56:07.868Z,3.90
2018-12-12T10:58:35.329Z,3.90
2018-12-12T11:01:08.526Z,3.90
2018-12-12T11:03:43.931Z,3.90
2018-12-12T11:06:07.413Z,3.90
2018-12-12T11:08:34.881Z,3.90
2018-12-12T11:11:02.365Z,3.90
2018-12-12T11:13:29.904Z,4.80
2018-12-12T11:15:57.360Z,5.10
2018-12-12T11:18:24.826Z,4.80
2018-12-12T11:20:52.298Z,4.60
2018-12-12T11:23:19.740Z,4.40
2018-12-12T11:25:47.200Z,4.20
2018-12-12T11:28:16.110Z,4.20
2018-12-12T11:30:43.683Z,4.30
2018-12-12T11:33:11.129Z,4.40
2018-12-12T11:35:38.656Z,4.60
2018-12-12T11:38:06.108Z,4.90
2018-12-12T11:40:33.953Z,4.90
2018-12-12T11:43:01.406Z,5.30
2018-12-12T11:45:28.868Z,5.70
2018-12-12T11:47:57.540Z,5.60
2018-12-12T11:50:25.081Z,5.20
2018-12-12T11:52:52.573Z,5.00
2018-12-12T11:55:20.038Z,4.80
2018-12-12T11:57:47.552Z,4.70
2018-12-12T12:00:15.019Z,4.70
2018-12-12T12:02:43.422Z,4.90
2018-12-12T12:05:10.885Z,5.00
2018-12-12T12:07:38.356Z,5.00
2018-12-12T12:10:07.658Z,5.10
2018-12-12T12:12:35.121Z,5.10
2018-12-12T12:15:02.576Z,4.90
2018-12-12T12:17:30.040Z,5.10
2018-12-12T12:19:57.497Z,5.10
2018-12-12T12:22:24.961Z,4.90
2018-12-12T12:24:52.411Z,4.80
2018-12-12T12:27:19.940Z,4.90
2018-12-12T12:29:47.381Z,4.80
2018-12-12T12:32:15.273Z,4.80
2018-12-12T12:34:42.724Z,4.90
2018-12-12T12:37:10.180Z,5.00
2018-12-12T12:39:37.633Z,4.90
2018-12-12T12:42:05.104Z,5.10
2018-12-12T12:44:32.560Z,5.10
2018-12-12T12:47:00.024Z,5.30
2018-12-12T12:49:27.485Z,5.50
2018-12-12T12:51:55.961Z,5.40
2018-12-12T12:54:23.414Z,5.30
2018-12-12T12:56:50.873Z,5.20
2018-12-12T12:59:18.317Z,5.30
2018-12-12T13:01:45.777Z,5.30
2018-12-12T13:04:14.158Z,5.30
2018-12-12T13:06:41.637Z,5.20
2018-12-12T13:09:09.085Z,5.00
2018-12-12T13:11:37.504Z,5.00
2018-12-12T13:14:05.084Z,4.90
2018-12-12T13:16:32.564Z,4.90
2018-12-12T13:19:00.230Z,4.80
2018-12-12T13:21:27.688Z,4.80
2018-12-12T13:23:55.133Z,4.70
2018-12-12T13:26:22.656Z,4.70
2018-12-12T13:28:50.116Z,4.70
2018-12-12T13:31:17.567Z,4.70
2018-12-12T13:33:45.022Z,4.70
2018-12-12T13:36:12.489Z,4.70
2018-12-12T13:38:39.956Z,4.80
2018-12-12T13:41:07.397Z,4.80
2018-12-12T13:43:34.857Z,4.80
2018-12-12T13:46:02.300Z,4.80
2018-12-12T13:48:29.761Z,4.70
2018-12-12T13:50:57.216Z,4.70
2018-12-12T13:53:24.676Z,4.70
2018-12-12T13:55:52.122Z,4.60
2018-12-12T13:58:19.584Z,4.60
2018-12-12T14:00:47.033Z,4.70
2018-12-12T14:03:14.505Z,4.70
2018-12-12T14:05:41.950Z,4.70
2018-12-12T14:08:09.409Z,4.70
2018-12-12T14:10:36.865Z,4.70
2018-12-12T14:13:04.325Z,4.50
2018-12-12T14:15:31.768Z,4.50
2018-12-12T14:17:59.228Z,6.10
2018-12-12T14:20:26.684Z,4.20
2018-12-12T14:22:54.145Z,4.20
2018-12-12T14:25:21.591Z,4.00
2018-12-12T14:27:49.121Z,3.90
2018-12-12T14:30:16.569Z,4.00
2018-12-12T14:32:44.028Z,4.00
2018-12-12T14:35:11.543Z,4.00
2018-12-12T14:37:39.004Z,4.00
2018-12-12T14:40:06.995Z,4.00
2018-12-12T14:42:34.453Z,4.00
2018-12-12T14:45:01.905Z,4.00
2018-12-12T14:47:29.369Z,3.90
2018-12-12T14:49:56.817Z,3.90
2018-12-12T14:52:24.281Z,3.80
2018-12-12T14:54:51.732Z,3.80
2018-12-12T14:57:19.188Z,3.70
2018-12-12T14:59:46.991Z,3.70
2018-12-12T15:02:14.428Z,3.60
2018-12-12T15:04:41.889Z,3.50
2018-12-12T15:07:09.341Z,3.50
2018-12-12T15:09:36.812Z,3.40
2018-12-12T15:12:04.327Z,3.30
2018-12-12T15:14:31.785Z,3.30
2018-12-12T15:16:59.236Z,3.10
2018-12-12T15:19:26.701Z,3.10
2018-12-12T15:21:54.154Z,3.20
2018-12-12T15:24:21.612Z,3.10
2018-12-12T15:26:49.056Z,3.30
2018-12-12T15:29:16.642Z,3.30
2018-12-12T15:31:44.088Z,3.20
2018-12-12T15:34:11.540Z,3.20
2018-12-12T15:36:38.993Z,3.10
2018-12-12T15:39:07.289Z,3.00
2018-12-12T15:41:34.740Z,3.00
2018-12-12T15:44:02.277Z,2.80
2018-12-12T15:46:29.724Z,2.80
2018-12-12T15:48:57.189Z,2.70
2018-12-12T15:51:24.643Z,2.70
2018-12-12T15:53:52.096Z,2.80
2018-12-12T15:56:19.540Z,2.80
2018-12-12T15:58:47.062Z,2.80
2018-12-12T16:01:14.544Z,2.80
2018-12-12T16:03:42.008Z,2.90
2018-12-12T16:06:09.461Z,2.90
2018-12-12T16:08:36.930Z,2.90
2018-12-12T16:11:08.271Z,2.90
2018-12-12T16:13:33.863Z,3.00
2018-12-12T16:16:01.479Z,3.00
2018-12-12T16:18:28.976Z,3.10
2018-12-12T16:20:56.423Z,3.10
2018-12-12T16:23:23.950Z,3.00
2018-12-12T16:25:51.433Z,3.10
2018-12-12T16:28:18.904Z,3.10
2018-12-12T16:30:46.365Z,3.10
2018-12-12T16:33:15.936Z,3.00
2018-12-12T16:35:43.397Z,3.00
2018-12-12T16:38:10.848Z,3.00
2018-12-12T16:40:38.307Z,3.00
2018-12-12T16:43:05.824Z,3.00
2018-12-12T16:45:33.292Z,3.00
2018-12-12T16:48:00.735Z,3.10
2018-12-12T16:50:28.197Z,3.10
2018-12-12T16:52:55.644Z,3.00
2018-12-12T16:55:23.188Z,3.00
2018-12-12T16:57:50.639Z,3.00
2018-12-12T17:00:18.100Z,3.00
2018-12-12T17:02:45.816Z,2.90
2018-12-12T17:05:13.464Z,3.00
2018-12-12T17:07:40.916Z,2.90
2018-12-12T17:10:10.839Z,2.90
2018-12-12T17:12:37.893Z,2.90
2018-12-12T17:15:06.088Z,2.90
2018-12-12T17:17:33.537Z,2.70
2018-12-12T17:20:01.002Z,2.70
2018-12-12T17:22:28.440Z,2.60
2018-12-12T17:24:55.908Z,2.70
2018-12-12T17:27:23.357Z,2.70
2018-12-12T17:29:50.818Z,2.70
2018-12-12T17:32:18.260Z,2.70
2018-12-12T17:34:45.720Z,2.70
2018-12-12T17:37:13.169Z,2.80
2018-12-12T17:39:40.632Z,2.80
2018-12-12T17:42:08.077Z,2.70
2018-12-12T17:44:35.541Z,2.70
2018-12-12T17:47:02.984Z,2.70
2018-12-12T17:49:30.449Z,2.60
2018-12-12T17:51:57.896Z,2.60
2018-12-12T17:54:25.360Z,2.50
2018-12-12T17:56:52.805Z,2.50
2018-12-12T17:59:20.261Z,2.50
2018-12-12T18:01:47.717Z,2.40
2018-12-12T18:04:15.201Z,2.40
2018-12-12T18:06:42.672Z,2.40
2018-12-12T18:09:10.144Z,2.40
2018-12-12T18:11:37.614Z,2.40
2018-12-12T18:14:05.060Z,2.50
2018-12-12T18:16:32.521Z,2.50
2018-12-12T18:19:00.917Z,2.30
2018-12-12T18:21:28.382Z,2.40
2018-12-12T18:23:55.972Z,2.30
2018-12-12T18:26:23.448Z,2.30
2018-12-12T18:28:50.902Z,2.30
2018-12-12T18:31:18.367Z,2.20
2018-12-12T18:33:45.816Z,2.20
2018-12-12T18:36:13.272Z,2.10
2018-12-12T18:38:40.720Z,2.10
2018-12-12T18:41:08.184Z,2.10
2018-12-12T18:43:35.633Z,2.00
2018-12-12T18:46:03.096Z,2.00
2018-12-12T18:48:30.554Z,2.00
2018-12-12T18:50:58.003Z,2.00
2018-12-12T18:53:25.458Z,2.00
2018-12-12T18:55:52.923Z,1.80
2018-12-12T18:58:20.369Z,1.90
2018-12-12T19:00:47.829Z,1.90
2018-12-12T19:03:15.280Z,1.80
2018-12-12T19:05:42.748Z,1.90
2018-12-12T19:08:10.202Z,1.80
2018-12-12T19:10:38.193Z,1.70
2018-12-12T19:13:05.638Z,1.70
2018-12-12T19:15:33.112Z,1.70
2018-12-12T19:18:00.549Z,1.60
2018-12-12T19:20:28.027Z,1.50
2018-12-12T19:22:55.468Z,1.40
2018-12-12T19:25:22.944Z,1.40
2018-12-12T19:27:50.400Z,0.50
2018-12-12T19:30:17.861Z,1.40
2018-12-12T19:32:45.299Z,1.40
2018-12-12T19:35:12.752Z,1.40
2018-12-12T19:37:40.225Z,1.20
2018-12-12T19:40:08.177Z,1.10
2018-12-12T19:42:35.712Z,1.00
2018-12-12T19:45:03.517Z,1.00
2018-12-12T19:47:30.968Z,0.80
2018-12-12T19:49:58.404Z,0.80
2018-12-12T19:52:25.860Z,0.80
2018-12-12T19:54:53.305Z,0.90
2018-12-12T19:57:20.861Z,0.80
2018-12-12T19:59:48.309Z,0.90
2018-12-12T20:02:15.771Z,1.00
2018-12-12T20:04:43.220Z,1.00
2018-12-12T20:07:10.713Z,0.90
2018-12-12T20:09:38.164Z,0.80
2018-12-12T20:12:05.705Z,0.90
2018-12-12T20:14:33.158Z,0.90
2018-12-12T20:17:00.616Z,0.90
2018-12-12T20:19:28.060Z,0.90
2018-12-12T20:21:55.520Z,0.90
2018-12-12T20:24:22.962Z,0.80
2018-12-12T20:26:50.465Z,0.80
2018-12-12T20:29:17.916Z,0.80
2018-12-12T20:31:45.380Z,0.80
2018-12-12T20:34:12.837Z,0.80
2018-12-12T20:36:40.292Z,0.80
2018-12-12T20:39:07.786Z,0.90
2018-12-12T20:41:35.361Z,1.00
2018-12-12T20:44:05.724Z,0.90
2018-12-12T20:46:33.155Z,1.00
2018-12-12T20:49:00.627Z,1.00
2018-12-12T20:51:28.064Z,0.90
2018-12-12T20:53:55.530Z,0.80
2018-12-12T20:56:22.970Z,1.00
2018-12-12T20:58:50.438Z,0.90
2018-12-12T21:01:17.880Z,0.90
2018-12-12T21:03:45.336Z,0.80
2018-12-12T21:06:12.787Z,0.80
2018-12-12T21:08:40.244Z,0.70
2018-12-12T21:11:07.696Z,0.60
2018-12-12T21:13:35.161Z,0.60
2018-12-12T21:16:02.624Z,0.70
2018-12-12T21:18:30.076Z,0.70
2018-12-12T21:20:57.616Z,0.60
2018-12-12T21:23:25.073Z,0.60
2018-12-12T21:25:53.461Z,0.60
2018-12-12T21:28:20.913Z,0.40
2018-12-12T21:30:48.368Z,0.40
2018-12-12T21:33:15.826Z,0.40
2018-12-12T21:35:43.278Z,0.50
2018-12-12T21:38:10.749Z,0.30
2018-12-12T21:40:38.211Z,0.40
2018-12-12T21:43:05.660Z,0.30
2018-12-12T21:45:33.116Z,0.30
2018-12-12T21:48:00.585Z,0.30
2018-12-12T21:50:28.033Z,0.30
2018-12-12T21:52:55.488Z,0.40
2018-12-12T21:55:23.041Z,0.40
2018-12-12T21:57:50.508Z,0.40
2018-12-12T22:00:17.952Z,0.40
2018-12-12T22:02:45.612Z,0.40
2018-12-12T22:05:13.065Z,0.30
2018-12-12T22:07:40.524Z,0.30
2018-12-12T22:10:08.111Z,0.20
2018-12-12T22:12:35.567Z,0.10
2018-12-12T22:15:03.370Z,-0.10
2018-12-12T22:17:30.829Z,-0.20
2018-12-12T22:19:58.284Z,-0.30
2018-12-12T22:22:25.756Z,-0.30
2018-12-12T22:24:53.205Z,-0.40
2018-12-12T22:27:20.669Z,-0.30
2018-12-12T22:29:48.137Z,-0.20
2018-12-12T22:32:15.589Z,-0.20
2018-12-12T22:34:43.053Z,-0.10
2018-12-12T22:37:10.507Z,-0.10
2018-12-12T22:39:37.977Z,-0.10
2018-12-12T22:42:05.432Z,-0.20
2018-12-12T22:44:32.901Z,-0.20
2018-12-12T22:47:00.354Z,-0.20
2018-12-12T22:49:27.827Z,-0.20
2018-12-12T22:51:55.272Z,-0.10
2018-12-12T22:54:22.780Z,-0.20
2018-12-12T22:56:50.236Z,-0.30
2018-12-12T22:59:18.077Z,-0.30
2018-12-12T23:01:45.525Z,-0.30
2018-12-12T23:04:12.993Z,-0.30
2018-12-12T23:06:40.548Z,-0.30
2018-12-12T23:09:08.081Z,-0.30
2018-12-12T23:11:35.576Z,-0.30
2018-12-12T23:14:03.007Z,-0.20
2018-12-12T23:16:30.481Z,-0.20
2018-12-12T23:18:57.928Z,-0.10
2018-12-12T23:21:25.469Z,-0.10
2018-12-12T23:23:52.928Z,-0.10
2018-12-12T23:26:20.409Z,-0.10
2018-12-12T23:28:47.868Z,-0.20
2018-12-12T23:31:15.343Z,-0.20
2018-12-12T23:33:43.068Z,-0.10
2018-12-12T23:36:10.533Z,-0.20
2018-12-12T23:38:37.993Z,-0.20
2018-12-12T23:41:05.769Z,-0.20
2018-12-12T23:43:33.235Z,-0.30
2018-12-12T23:46:00.707Z,-0.40
2018-12-12T23:48:28.156Z,-0.40
2018-12-12T23:50:56.540Z,-0.30
2018-12-12T23:53:24.000Z,-0.30
2018-12-12T23:55:51.472Z,-0.30
2018-12-12T23:58:18.924Z,-0.40
